createdAt,value
2018-04-10T00:00:37.766Z,9.93
2018-04-10T00:03:06.109Z,10.63
2018-04-10T00:05:34.293Z,10.50
2018-04-10T00:08:03.312Z,10.20
2018-04-10T00:10:31.621Z,10.47
2018-04-10T00:12:59.182Z,10.37
2018-04-10T00:15:26.705Z,9.93
2018-04-10T00:17:55.033Z,10.13
2018-04-10T00:20:22.564Z,10.50
2018-04-10T00:22:50.841Z,10.33
2018-04-10T00:25:18.442Z,9.30
2018-04-10T00:27:45.987Z,8.90
2018-04-10T00:30:14.295Z,9.83
2018-04-10T00:32:41.821Z,9.43
2018-04-10T00:35:09.383Z,9.20
2018-04-10T00:37:36.984Z,9.37
2018-04-10T00:40:04.498Z,8.80
2018-04-10T00:42:33.534Z,8.40
2018-04-10T00:45:01.062Z,8.50
2018-04-10T00:47:29.347Z,8.33
2018-04-10T00:50:02.675Z,8.20
2018-04-10T00:52:30.221Z,7.47
2018-04-10T00:54:58.500Z,7.90
2018-04-10T00:57:26.039Z,6.80
2018-04-10T00:59:53.572Z,6.73
2018-04-10T01:02:21.129Z,7.40
2018-04-10T01:04:48.656Z,7.13
2018-04-10T01:07:16.185Z,6.70
2018-04-10T01:09:43.704Z,7.17
2018-04-10T01:12:12.005Z,6.90
2018-04-10T01:14:39.512Z,7.40
2018-04-10T01:17:07.040Z,6.70
2018-04-10T01:19:34.580Z,6.67
2018-04-10T01:22:02.101Z,6.17
2018-04-10T01:24:29.620Z,6.00
2018-04-10T01:26:57.157Z,6.33
2018-04-10T01:29:25.481Z,6.43
2018-04-10T01:31:52.993Z,6.13
2018-04-10T01:34:20.521Z,6.37
2018-04-10T01:36:48.029Z,6.40
2018-04-10T01:39:16.295Z,6.40
2018-04-10T01:41:43.836Z,5.73
2018-04-10T01:44:11.342Z,6.13
2018-04-10T01:46:39.622Z,6.07
2018-04-10T01:49:07.923Z,6.37
2018-04-10T01:51:35.441Z,6.40
2018-04-10T01:54:03.014Z,6.23
2018-04-10T01:56:30.611Z,6.23
2018-04-10T01:58:58.919Z,6.77
2018-04-10T02:01:26.439Z,6.33
2018-04-10T02:03:54.796Z,6.90
2018-04-10T02:06:23.821Z,7.63
2018-04-10T02:08:52.105Z,7.57
2018-04-10T02:11:20.405Z,8.30
2018-04-10T02:13:47.929Z,8.43
2018-04-10T02:16:16.236Z,8.87
2018-04-10T02:18:44.541Z,9.40
2018-04-10T02:21:12.073Z,8.23
2018-04-10T02:23:40.368Z,8.90
2018-04-10T02:26:07.910Z,8.60
2018-04-10T02:28:36.278Z,9.13
2018-04-10T02:31:03.800Z,9.10
2018-04-10T02:33:31.361Z,8.90
2018-04-10T02:35:58.891Z,8.60
2018-04-10T02:38:26.417Z,9.10
2018-04-10T02:40:53.948Z,8.43
2018-04-10T02:43:21.486Z,9.03
2018-04-10T02:45:49.769Z,8.47
2018-04-10T02:48:18.086Z,8.57
2018-04-10T02:50:45.601Z,8.87
2018-04-10T02:53:13.101Z,9.43
2018-04-10T02:55:40.825Z,9.03
2018-04-10T02:58:09.852Z,8.70
2018-04-10T03:00:38.553Z,9.17
2018-04-10T03:03:06.096Z,8.90
2018-04-10T03:05:34.381Z,9.30
2018-04-10T03:08:02.657Z,9.37
2018-04-10T03:10:30.216Z,9.90
2018-04-10T03:12:57.750Z,9.40
2018-04-10T03:15:25.273Z,10.10
2018-04-10T03:17:52.820Z,10.03
2018-04-10T03:20:21.096Z,10.00
2018-04-10T03:22:48.620Z,11.60
2018-04-10T03:25:16.174Z,11.73
2018-04-10T03:27:43.699Z,11.93
2018-04-10T03:30:11.976Z,11.57
2018-04-10T03:32:40.293Z,11.37
2018-04-10T03:35:07.978Z,10.83
2018-04-10T03:37:35.489Z,11.50
2018-04-10T03:40:03.800Z,11.23
2018-04-10T03:42:31.323Z,12.10
2018-04-10T03:44:58.833Z,11.73
2018-04-10T03:47:26.367Z,11.47
2018-04-10T03:49:54.728Z,12.57
2018-04-10T03:52:23.032Z,11.70
2018-04-10T03:54:52.333Z,11.10
2018-04-10T03:57:20.409Z,11.33
2018-04-10T03:59:48.452Z,12.47
2018-04-10T04:02:16.315Z,10.50
2018-04-10T04:04:44.557Z,12.93
2018-04-10T04:07:12.089Z,11.13
2018-04-10T04:09:40.393Z,11.43
2018-04-10T04:12:07.961Z,10.63
2018-04-10T04:14:36.245Z,9.90
2018-04-10T04:17:15.689Z,10.17
2018-04-10T04:19:55.022Z,8.93
2018-04-10T04:22:34.563Z,8.47
2018-04-10T04:25:02.097Z,8.40
2018-04-10T04:27:31.252Z,8.53
2018-04-10T04:29:58.812Z,8.57
2018-04-10T04:32:26.333Z,9.27
2018-04-10T04:34:54.637Z,8.50
2018-04-10T04:37:22.197Z,8.43
2018-04-10T04:39:49.729Z,8.97
2018-04-10T04:42:17.997Z,8.80
2018-04-10T04:44:45.561Z,8.40
2018-04-10T04:47:14.577Z,8.67
2018-04-10T04:49:42.869Z,8.70
2018-04-10T04:52:11.170Z,8.57
2018-04-10T04:54:38.745Z,8.60
2018-04-10T04:57:06.265Z,8.77
2018-04-10T04:59:33.932Z,9.03
2018-04-10T05:02:02.221Z,8.87
2018-04-10T05:04:30.516Z,8.50
2018-04-10T05:06:58.828Z,9.00
2018-04-10T05:09:26.354Z,8.80
2018-04-10T05:11:53.909Z,8.67
2018-04-10T05:14:22.212Z,8.93
2018-04-10T05:16:49.713Z,8.90
2018-04-10T05:19:17.221Z,9.33
2018-04-10T05:21:45.520Z,9.23
2018-04-10T05:24:13.035Z,9.33
2018-04-10T05:26:40.556Z,11.43
2018-04-10T05:29:08.085Z,10.73
2018-04-10T05:31:36.501Z,12.10
2018-04-10T05:34:04.013Z,13.23
2018-04-10T05:36:31.584Z,13.53
2018-04-10T05:38:59.099Z,14.00
2018-04-10T05:41:26.636Z,12.90
2018-04-10T05:43:54.960Z,14.17
2018-04-10T05:46:22.468Z,13.23
2018-04-10T05:48:50.058Z,11.97
2018-04-10T05:51:18.421Z,11.57
2018-04-10T05:53:46.712Z,12.20
2018-04-10T05:56:15.009Z,11.47
2018-04-10T05:58:42.564Z,12.43
2018-04-10T06:01:10.895Z,13.27
2018-04-10T06:03:38.424Z,12.80
2018-04-10T06:06:05.972Z,12.37
2018-04-10T06:08:34.262Z,13.30
2018-04-10T06:11:03.244Z,14.17
2018-04-10T06:13:31.572Z,14.00
2018-04-10T06:15:59.091Z,13.43
2018-04-10T06:18:27.380Z,12.67
2018-04-10T06:20:55.700Z,13.30
2018-04-10T06:23:23.225Z,13.33
2018-04-10T06:25:51.579Z,13.27
2018-04-10T06:28:20.628Z,13.03
2018-04-10T06:30:48.144Z,13.07
2018-04-10T06:33:15.669Z,13.10
2018-04-10T06:35:43.203Z,13.20
2018-04-10T06:38:11.481Z,12.97
2018-04-10T06:40:39.773Z,13.13
2018-04-10T06:43:08.093Z,13.10
2018-04-10T06:45:35.625Z,13.13
2018-04-10T06:48:03.486Z,12.03
2018-04-10T06:50:31.444Z,11.57
2018-04-10T06:52:59.996Z,12.47
2018-04-10T06:55:27.612Z,12.40
2018-04-10T06:57:55.924Z,11.50
2018-04-10T07:00:23.457Z,13.40
2018-04-10T07:02:51.553Z,13.80
2018-04-10T07:05:19.406Z,11.80
2018-04-10T07:07:47.090Z,12.13
2018-04-10T07:10:14.622Z,10.53
2018-04-10T07:12:42.955Z,10.80
2018-04-10T07:15:10.559Z,10.93
2018-04-10T07:17:38.492Z,10.17
2018-04-10T07:20:06.042Z,10.43
2018-04-10T07:22:33.576Z,10.80
2018-04-10T07:25:01.857Z,9.83
2018-04-10T07:27:30.150Z,8.80
2018-04-10T07:29:58.549Z,8.60
2018-04-10T07:32:26.085Z,7.10
2018-04-10T07:34:54.404Z,8.40
2018-04-10T07:37:21.956Z,8.13
2018-04-10T07:39:49.514Z,8.52
2018-04-10T07:42:17.838Z,8.23
2018-04-10T07:44:45.353Z,7.60
2018-04-10T07:47:13.654Z,7.82
2018-04-10T07:49:41.973Z,8.48
2018-04-10T07:52:09.489Z,8.30
2018-04-10T07:54:37.813Z,7.40
2018-04-10T07:57:05.328Z,7.18
2018-04-10T07:59:33.604Z,6.50
2018-04-10T08:02:01.881Z,6.15
2018-04-10T08:04:30.413Z,5.68
2018-04-10T08:06:57.936Z,5.43
2018-04-10T08:09:26.214Z,5.40
2018-04-10T08:11:54.522Z,5.15
2018-04-10T08:14:22.028Z,5.12
2018-04-10T08:16:49.994Z,5.10
2018-04-10T08:19:17.545Z,5.28
2018-04-10T08:21:45.053Z,5.50
2018-04-10T08:24:12.571Z,5.32
2018-04-10T08:26:40.108Z,5.37
2018-04-10T08:29:07.673Z,4.85
2018-04-10T08:31:35.201Z,4.60
2018-04-10T08:34:03.501Z,4.93
2018-04-10T08:36:31.820Z,4.30
2018-04-10T08:38:59.341Z,4.65
2018-04-10T08:41:26.896Z,4.53
2018-04-10T08:43:54.409Z,4.62
2018-04-10T08:46:21.924Z,4.28
2018-04-10T08:48:50.231Z,4.60
2018-04-10T08:51:18.502Z,4.50
2018-04-10T08:53:46.812Z,5.15
2018-04-10T08:56:14.337Z,4.70
2018-04-10T08:58:42.614Z,4.80
2018-04-10T09:01:10.135Z,4.80
2018-04-10T09:03:37.668Z,4.50
2018-04-10T09:06:06.090Z,4.57
2018-04-10T09:08:33.604Z,5.10
2018-04-10T09:11:01.904Z,5.07
2018-04-10T09:13:29.489Z,4.68
2018-04-10T09:15:57.013Z,5.82
2018-04-10T09:18:25.320Z,4.87
2018-04-10T09:20:52.921Z,5.10
2018-04-10T09:23:20.441Z,5.07
2018-04-10T09:25:48.742Z,5.05
2018-04-10T09:28:16.261Z,3.92
2018-04-10T09:30:44.549Z,4.25
2018-04-10T09:33:12.846Z,4.72
2018-04-10T09:35:40.401Z,4.43
2018-04-10T09:38:08.701Z,4.40
2018-04-10T09:40:36.236Z,4.28
2018-04-10T09:43:04.560Z,4.43
2018-04-10T09:45:32.071Z,4.12
2018-04-10T09:47:59.626Z,4.20
2018-04-10T09:50:27.137Z,3.90
2018-04-10T09:52:54.656Z,4.40
2018-04-10T09:55:22.188Z,3.67
2018-04-10T09:57:49.696Z,3.83
2018-04-10T10:00:23.884Z,4.25
2018-04-10T10:02:51.408Z,4.00
2018-04-10T10:05:18.936Z,4.07
2018-04-10T10:07:46.519Z,4.72
2018-04-10T10:10:14.919Z,4.50
2018-04-10T10:12:43.207Z,3.65
2018-04-10T10:15:11.588Z,4.55
2018-04-10T10:17:39.117Z,4.80
2018-04-10T10:20:06.647Z,5.10
2018-04-10T10:22:34.176Z,4.65
2018-04-10T10:27:37.208Z,5.60
2018-04-10T10:30:04.734Z,5.53
2018-04-10T10:32:33.038Z,6.72
2018-04-10T10:35:00.585Z,6.90
2018-04-10T10:37:28.855Z,7.05
2018-04-10T10:39:56.389Z,6.93
2018-04-10T10:42:23.950Z,6.30
2018-04-10T10:44:51.489Z,6.15
2018-04-10T10:47:19.013Z,4.78
2018-04-10T10:49:47.328Z,5.85
2018-04-10T10:52:14.849Z,4.80
2018-04-10T10:54:43.868Z,5.47
2018-04-10T10:57:12.185Z,4.82
2018-04-10T10:59:39.704Z,5.40
2018-04-10T11:02:07.989Z,5.62
2018-04-10T11:04:36.302Z,5.00
2018-04-10T11:07:03.811Z,5.07
2018-04-10T11:09:32.201Z,5.32
2018-04-10T11:11:59.739Z,4.82
2018-04-10T11:14:27.274Z,5.57
2018-04-10T11:16:54.780Z,6.47
2018-04-10T11:19:22.313Z,4.90
2018-04-10T11:21:49.845Z,5.40
2018-04-10T11:24:18.117Z,6.40
2018-04-10T11:26:46.425Z,5.30
2018-04-10T11:29:13.934Z,5.22
2018-04-10T11:31:41.461Z,5.55
2018-04-10T11:34:09.023Z,5.68
2018-04-10T11:36:36.556Z,5.40
2018-04-10T11:39:04.861Z,5.00
2018-04-10T11:41:32.397Z,4.62
2018-04-10T11:44:01.466Z,5.22
2018-04-10T11:46:28.994Z,5.82
2018-04-10T11:48:56.558Z,6.47
2018-04-10T11:51:24.153Z,6.15
2018-04-10T11:53:51.671Z,5.93
2018-04-10T11:56:19.977Z,6.40
2018-04-10T11:58:47.494Z,7.07
2018-04-10T12:01:15.000Z,6.15
2018-04-10T12:03:42.532Z,7.03
2018-04-10T12:06:10.042Z,7.75
2018-04-10T12:08:37.560Z,7.30
2018-04-10T12:11:05.950Z,6.87
2018-04-10T12:13:34.227Z,6.55
2018-04-10T12:16:02.545Z,7.28
2018-04-10T12:18:30.105Z,8.02
2018-04-10T12:20:57.624Z,7.37
2018-04-10T12:23:25.151Z,7.55
2018-04-10T12:25:52.709Z,6.90
2018-04-10T12:28:20.237Z,7.78
2018-04-10T12:30:48.513Z,7.43
2018-04-10T12:33:16.820Z,6.97
2018-04-10T12:35:44.337Z,6.97
2018-04-10T12:38:13.358Z,6.55
2018-04-10T12:40:41.652Z,7.97
2018-04-10T12:43:09.992Z,7.50
2018-04-10T12:45:37.505Z,8.30
2018-04-10T12:48:05.054Z,7.95
2018-04-10T12:50:33.337Z,7.78
2018-04-10T12:53:02.065Z,7.28
2018-04-10T12:55:29.593Z,8.90
2018-04-10T12:57:57.879Z,8.82
2018-04-10T13:00:25.391Z,7.18
2018-04-10T13:02:52.920Z,8.93
2018-04-10T13:05:20.436Z,9.55
2018-04-10T13:07:48.749Z,8.90
2018-04-10T13:10:16.304Z,9.23
2018-04-10T13:12:44.875Z,8.50
2018-04-10T13:15:12.391Z,9.07
2018-04-10T13:17:39.935Z,8.57
2018-04-10T13:20:07.487Z,8.55
2018-04-10T13:22:35.769Z,9.30
2018-04-10T13:25:04.073Z,10.00
2018-04-10T13:27:31.626Z,9.82
2018-04-10T13:29:59.173Z,10.13
2018-04-10T13:32:27.536Z,10.07
2018-04-10T13:34:55.080Z,9.10
2018-04-10T13:37:22.616Z,10.20
2018-04-10T13:39:50.156Z,9.77
2018-04-10T13:42:18.473Z,10.77
2018-04-10T13:44:45.992Z,11.10
2018-04-10T13:47:14.296Z,12.52
2018-04-10T13:49:41.804Z,12.70
2018-04-10T13:52:09.342Z,13.25
2018-04-10T13:54:36.882Z,13.18
2018-04-10T13:57:04.401Z,12.75
2018-04-10T13:59:31.942Z,13.45
2018-04-10T14:01:59.494Z,13.65
2018-04-10T14:04:27.032Z,14.45
2018-04-10T14:06:54.549Z,14.18
2018-04-10T14:09:22.115Z,15.07
2018-04-10T14:11:49.634Z,14.57
2018-04-10T14:14:17.270Z,14.38
2018-04-10T14:16:44.814Z,13.10
2018-04-10T14:19:12.392Z,12.40
2018-04-10T14:21:39.953Z,12.73
2018-04-10T14:24:07.612Z,13.35
2018-04-10T14:26:35.215Z,14.18
2018-04-10T14:29:03.690Z,14.38
2018-04-10T14:31:32.088Z,15.23
2018-04-10T14:34:00.408Z,15.77
2018-04-10T14:36:27.937Z,17.23
2018-04-10T14:38:56.553Z,17.80
2018-04-10T14:41:24.085Z,16.95
2018-04-10T14:43:51.676Z,16.20
2018-04-10T14:46:19.224Z,17.17
2018-04-10T14:48:46.753Z,16.33
2018-04-10T14:51:14.373Z,16.98
2018-04-10T14:53:41.984Z,17.08
2018-04-10T14:56:09.538Z,17.05
2018-04-10T14:58:37.340Z,17.10
2018-04-10T15:01:04.929Z,17.65
2018-04-10T15:03:32.667Z,19.10
2018-04-10T15:06:00.275Z,19.35
2018-04-10T15:08:27.882Z,17.90
2018-04-10T15:10:56.193Z,18.77
2018-04-10T15:13:24.737Z,19.35
2018-04-10T15:15:53.181Z,18.62
2018-04-10T15:18:20.758Z,19.23
2018-04-10T15:20:48.449Z,20.40
2018-04-10T15:23:16.005Z,18.52
2018-04-10T15:25:43.608Z,19.17
2018-04-10T15:28:11.129Z,19.48
2018-04-10T15:30:38.927Z,20.35
2018-04-10T15:33:07.256Z,22.00
2018-04-10T15:35:34.790Z,20.73
2018-04-10T15:38:02.429Z,21.70
2018-04-10T15:40:29.990Z,21.67
2018-04-10T15:42:57.670Z,23.23
2018-04-10T15:45:25.268Z,23.23
2018-04-10T15:47:53.676Z,22.85
2018-04-10T15:50:21.205Z,23.50
2018-04-10T15:52:49.537Z,23.52
2018-04-10T15:55:17.475Z,24.98
2018-04-10T15:57:45.244Z,23.95
2018-04-10T16:00:12.930Z,24.92
2018-04-10T16:02:40.939Z,24.73
2018-04-10T16:05:09.374Z,25.65
2018-04-10T16:07:37.697Z,25.25
2018-04-10T16:10:05.271Z,25.02
2018-04-10T16:12:32.824Z,24.00
2018-04-10T16:15:00.675Z,24.42
2018-04-10T16:17:28.405Z,24.02
2018-04-10T16:19:57.691Z,24.58
2018-04-10T16:22:25.346Z,21.55
2018-04-10T16:24:53.043Z,21.35
2018-04-10T16:27:20.973Z,21.20
2018-04-10T16:29:49.166Z,20.90
2018-04-10T16:32:16.908Z,21.98
2018-04-10T16:34:44.428Z,20.37
2018-04-10T16:37:12.737Z,20.62
2018-04-10T16:39:41.029Z,20.40
2018-04-10T16:42:08.581Z,20.80
2018-04-10T16:44:36.140Z,19.10
2018-04-10T16:47:03.752Z,17.77
2018-04-10T16:49:31.302Z,17.87
2018-04-10T16:51:58.877Z,18.33
2018-04-10T16:54:26.427Z,18.75
2018-04-10T16:56:53.945Z,17.62
2018-04-10T16:59:22.276Z,17.83
2018-04-10T17:01:49.808Z,17.40
2018-04-10T17:04:17.365Z,16.42
2018-04-10T17:06:45.693Z,16.70
2018-04-10T17:09:13.217Z,16.55
2018-04-10T17:11:41.519Z,15.15
2018-04-10T17:14:09.058Z,13.80
2018-04-10T17:16:36.621Z,13.47
2018-04-10T17:19:05.061Z,12.82
2018-04-10T17:21:33.910Z,12.80
2018-04-10T17:24:01.809Z,11.20
2018-04-10T17:26:30.367Z,11.20
2018-04-10T17:28:58.049Z,12.45
2018-04-10T17:31:25.684Z,11.77
2018-04-10T17:33:53.248Z,13.02
2018-04-10T17:36:21.578Z,12.37
2018-04-10T17:38:49.179Z,12.27
2018-04-10T17:41:17.530Z,8.63
2018-04-10T17:43:45.413Z,5.27
2018-04-10T17:46:12.999Z,4.55
2018-04-10T17:48:40.572Z,3.90
2018-04-10T17:51:10.002Z,3.80
2018-04-10T17:53:38.428Z,3.83
2018-04-10T17:56:06.643Z,3.97
2018-04-10T17:58:35.785Z,4.03
2018-04-10T18:01:04.491Z,3.83
2018-04-10T18:03:32.390Z,3.47
2018-04-10T18:05:59.962Z,3.83
2018-04-10T18:08:28.516Z,4.07
2018-04-10T18:10:56.082Z,3.90
2018-04-10T18:13:23.707Z,3.97
2018-04-10T18:15:51.248Z,3.47
2018-04-10T18:18:18.960Z,3.30
2018-04-10T18:20:50.713Z,3.70
2018-04-10T18:23:20.419Z,3.50
2018-04-10T18:25:49.215Z,3.27
2018-04-10T18:28:17.554Z,3.20
2018-04-10T18:30:45.190Z,3.07
2018-04-10T18:33:15.624Z,2.93
2018-04-10T18:35:43.234Z,3.20
2018-04-10T18:38:11.140Z,3.03
2018-04-10T18:40:39.889Z,3.70
2018-04-10T18:43:07.655Z,3.60
2018-04-10T18:45:35.904Z,3.57
2018-04-10T18:48:03.440Z,2.90
2018-04-10T18:50:31.124Z,2.97
2018-04-10T18:52:58.708Z,2.93
2018-04-10T18:55:26.367Z,2.97
2018-04-10T18:57:54.216Z,3.10
2018-04-10T19:00:21.829Z,2.63
2018-04-10T19:02:49.571Z,2.50
2018-04-10T19:05:17.952Z,2.90
2018-04-10T19:07:45.508Z,3.17
2018-04-10T19:10:13.831Z,2.87
2018-04-10T19:12:41.412Z,3.03
2018-04-10T19:15:08.960Z,3.50
2018-04-10T19:17:36.533Z,2.40
2018-04-10T19:20:04.134Z,2.70
2018-04-10T19:22:32.649Z,2.80
2018-04-10T19:25:00.181Z,2.83
2018-04-10T19:27:27.735Z,3.20
2018-04-10T19:29:56.776Z,2.97
2018-04-10T19:32:24.306Z,2.80
2018-04-10T19:34:51.904Z,3.00
2018-04-10T19:37:19.425Z,2.90
2018-04-10T19:39:46.941Z,2.90
2018-04-10T19:42:14.526Z,2.90
2018-04-10T19:44:42.072Z,3.07
2018-04-10T19:47:09.686Z,2.80
2018-04-10T19:49:38.810Z,2.83
2018-04-10T19:52:07.091Z,2.90
2018-04-10T19:54:34.616Z,3.00
2018-04-10T19:57:02.154Z,3.07
2018-04-10T19:59:29.686Z,3.37
2018-04-10T20:01:58.106Z,3.10
2018-04-10T20:04:25.648Z,2.93
2018-04-10T20:06:53.210Z,3.00
2018-04-10T20:09:20.721Z,3.47
2018-04-10T20:11:48.486Z,3.93
2018-04-10T20:14:16.014Z,3.50
2018-04-10T20:16:43.525Z,3.67
2018-04-10T20:19:11.100Z,3.27
2018-04-10T20:21:39.693Z,3.27
2018-04-10T20:24:07.360Z,2.93
2018-04-10T20:26:35.791Z,3.50
2018-04-10T20:29:03.313Z,3.30
2018-04-10T20:31:30.833Z,3.30
2018-04-10T20:33:58.496Z,3.40
2018-04-10T20:36:26.047Z,3.30
2018-04-10T20:38:53.608Z,3.50
2018-04-10T20:41:21.158Z,3.20
2018-04-10T20:43:49.765Z,3.20
2018-04-10T20:46:17.371Z,3.40
2018-04-10T20:48:45.750Z,3.70
2018-04-10T20:51:13.465Z,3.47
2018-04-10T20:53:41.837Z,3.60
2018-04-10T20:56:10.164Z,3.90
2018-04-10T20:58:37.758Z,3.80
2018-04-10T21:01:05.454Z,4.37
2018-04-10T21:03:33.816Z,4.37
2018-04-10T21:06:02.253Z,3.93
2018-04-10T21:08:29.802Z,4.30
2018-04-10T21:10:58.323Z,4.13
2018-04-10T21:13:26.000Z,4.03
2018-04-10T21:15:53.581Z,3.80
2018-04-10T21:18:21.149Z,4.00
2018-04-10T21:20:49.487Z,3.97
2018-04-10T21:23:17.061Z,4.00
2018-04-10T21:25:44.723Z,4.20
2018-04-10T21:28:12.261Z,3.70
2018-04-10T21:30:39.829Z,4.03
2018-04-10T21:33:08.165Z,3.80
2018-04-10T21:35:35.786Z,4.03
2018-04-10T21:38:03.322Z,3.73
2018-04-10T21:40:31.656Z,4.27
2018-04-10T21:43:04.853Z,3.60
2018-04-10T21:45:32.417Z,3.70
2018-04-10T21:47:59.944Z,3.67
2018-04-10T21:50:28.256Z,4.30
2018-04-10T21:52:55.853Z,5.10
2018-04-10T21:55:23.362Z,5.77
2018-04-10T21:57:50.913Z,7.20
2018-04-10T22:00:18.509Z,8.10
2018-04-10T22:02:46.072Z,8.33
2018-04-10T22:05:13.713Z,8.10
2018-04-10T22:07:41.376Z,8.40
2018-04-10T22:10:10.198Z,7.80
2018-04-10T22:12:37.735Z,7.87
2018-04-10T22:15:05.287Z,8.30
2018-04-10T22:17:33.599Z,8.17
2018-04-10T22:20:01.117Z,8.13
2018-04-10T22:22:29.533Z,8.33
2018-04-10T22:24:58.748Z,8.00
2018-04-10T22:27:24.757Z,7.83
2018-04-10T22:29:53.068Z,8.23
2018-04-10T22:32:20.597Z,8.77
2018-04-10T22:34:48.826Z,8.83
2018-04-10T22:37:16.393Z,8.70
2018-04-10T22:39:45.442Z,9.37
2018-04-10T22:42:13.005Z,8.70
2018-04-10T22:44:40.569Z,8.87
2018-04-10T22:47:08.170Z,9.67
2018-04-10T22:49:35.704Z,10.37
2018-04-10T22:52:03.297Z,10.17
2018-04-10T22:54:30.883Z,9.67
2018-04-10T22:56:58.509Z,9.87
2018-04-10T22:59:26.058Z,9.93
2018-04-10T23:01:53.578Z,10.27
2018-04-10T23:04:21.853Z,9.93
2018-04-10T23:06:49.447Z,9.80
2018-04-10T23:09:17.773Z,9.57
2018-04-10T23:11:45.314Z,9.97
2018-04-10T23:14:13.641Z,10.03
2018-04-10T23:16:41.214Z,8.73
2018-04-10T23:19:08.806Z,8.80
2018-04-10T23:21:36.394Z,8.93
2018-04-10T23:24:04.693Z,9.20
2018-04-10T23:26:33.024Z,9.10
2018-04-10T23:29:00.646Z,9.00
2018-04-10T23:31:28.192Z,9.03
2018-04-10T23:33:56.543Z,8.20
2018-04-10T23:36:24.178Z,8.10
2018-04-10T23:38:51.731Z,8.60
2018-04-10T23:41:20.008Z,8.87
2018-04-10T23:43:47.550Z,8.53
2018-04-10T23:46:15.141Z,10.00
2018-04-10T23:48:43.425Z,10.87
2018-04-10T23:51:11.746Z,10.33
2018-04-10T23:53:39.261Z,10.23
2018-04-10T23:56:07.533Z,11.23
2018-04-10T23:58:35.859Z,11.33
